createdAt,value
2022-11-25T00:02:46.747Z,1.60
2022-11-25T00:06:13.916Z,1.70
2022-11-25T00:09:37.494Z,1.87
2022-11-25T00:13:01.048Z,2.00
2022-11-25T00:16:27.467Z,1.60
2022-11-25T00:19:51.412Z,1.30
2022-11-25T00:23:15.012Z,1.60
2022-11-25T00:26:38.728Z,1.73
2022-11-25T00:30:02.358Z,1.60
2022-11-25T00:33:27.635Z,2.00
2022-11-25T00:36:53.250Z,2.10
2022-11-25T00:40:17.053Z,2.53
2022-11-25T00:43:58.363Z,2.00
2022-11-25T00:47:23.440Z,2.37
2022-11-25T00:50:48.386Z,1.90
2022-11-25T00:54:11.952Z,2.30
2022-11-25T00:57:35.666Z,2.50
2022-11-25T01:01:03.318Z,2.20
2022-11-25T01:04:28.207Z,1.97
2022-11-25T01:07:53.186Z,1.90
2022-11-25T01:11:21.211Z,1.80
2022-11-25T01:14:44.822Z,1.87
2022-11-25T01:18:10.886Z,1.90
2022-11-25T01:21:36.309Z,2.00
2022-11-25T01:25:01.240Z,1.60
2022-11-25T01:28:24.918Z,2.00
2022-11-25T01:31:49.647Z,2.13
2022-11-25T01:35:16.933Z,2.00
2022-11-25T01:38:41.329Z,2.70
2022-11-25T01:42:06.761Z,2.13
2022-11-25T01:45:38.766Z,2.60
2022-11-25T01:49:11.586Z,2.80
2022-11-25T01:52:41.030Z,2.80
2022-11-25T01:56:05.947Z,2.70
2022-11-25T01:59:34.304Z,2.97
2022-11-25T02:03:00.211Z,2.07
2022-11-25T02:06:28.047Z,2.37
2022-11-25T02:09:52.129Z,2.40
2022-11-25T02:13:16.659Z,2.40
2022-11-25T02:16:41.773Z,2.10
2022-11-25T02:20:09.410Z,1.80
2022-11-25T02:23:43.889Z,2.10
2022-11-25T02:27:09.059Z,2.53
2022-11-25T02:30:33.185Z,2.03
2022-11-25T02:33:56.858Z,2.43
2022-11-25T02:37:24.469Z,2.20
2022-11-25T02:40:54.033Z,1.90
2022-11-25T02:44:19.012Z,2.00
2022-11-25T02:47:42.648Z,2.10
2022-11-25T02:51:08.736Z,1.70
2022-11-25T02:54:32.398Z,1.80
2022-11-25T02:57:57.872Z,1.60
2022-11-25T03:01:23.146Z,1.40
2022-11-25T03:04:47.020Z,1.40
2022-11-25T03:08:11.764Z,1.63
2022-11-25T03:11:53.347Z,1.57
2022-11-25T03:15:18.101Z,1.60
2022-11-25T03:18:43.529Z,1.80
2022-11-25T03:22:07.648Z,1.33
2022-11-25T03:25:31.375Z,1.60
2022-11-25T03:28:54.983Z,1.30
2022-11-25T03:32:19.392Z,1.40
2022-11-25T03:35:44.658Z,1.47
2022-11-25T03:39:08.464Z,1.40
2022-11-25T03:42:34.841Z,1.50
2022-11-25T03:45:59.347Z,1.67
2022-11-25T03:49:24.544Z,1.67
2022-11-25T03:52:49.482Z,1.30
2022-11-25T03:56:15.984Z,1.30
2022-11-25T03:59:39.586Z,1.10
2022-11-25T04:03:03.346Z,1.10
2022-11-25T04:06:29.137Z,1.30
2022-11-25T04:09:54.230Z,1.40
2022-11-25T04:13:22.320Z,1.30
2022-11-25T04:16:47.741Z,1.27
2022-11-25T04:20:13.315Z,1.97
2022-11-25T04:23:39.571Z,1.50
2022-11-25T04:27:07.845Z,1.60
2022-11-25T04:30:34.849Z,1.50
2022-11-25T04:34:00.398Z,1.50
2022-11-25T04:37:25.182Z,1.40
2022-11-25T04:40:50.304Z,2.20
2022-11-25T04:44:18.380Z,1.90
2022-11-25T04:47:44.254Z,1.90
2022-11-25T04:51:08.524Z,2.00
2022-11-25T04:54:32.660Z,1.73
2022-11-25T04:57:57.213Z,2.10
2022-11-25T05:01:22.672Z,1.30
2022-11-25T05:04:51.804Z,1.93
2022-11-25T05:08:15.416Z,1.80
2022-11-25T05:11:39.626Z,2.00
2022-11-25T05:15:04.907Z,2.40
2022-11-25T05:18:31.188Z,2.17
2022-11-25T05:21:55.154Z,2.10
2022-11-25T05:25:20.840Z,1.80
2022-11-25T05:29:01.441Z,2.37
2022-11-25T05:32:27.297Z,1.60
2022-11-25T05:36:02.109Z,2.37
2022-11-25T05:39:38.434Z,2.70
2022-11-25T05:43:17.232Z,2.80
2022-11-25T05:46:40.882Z,2.90
2022-11-25T05:50:06.619Z,2.50
2022-11-25T05:53:33.291Z,3.00
2022-11-25T05:56:58.533Z,2.60
2022-11-25T06:00:29.441Z,2.40
2022-11-25T06:04:01.922Z,3.53
2022-11-25T06:07:26.466Z,2.57
2022-11-25T06:10:52.662Z,2.90
2022-11-25T06:14:18.849Z,2.60
2022-11-25T06:17:44.027Z,2.20
2022-11-25T06:21:18.716Z,2.10
2022-11-25T06:24:42.406Z,2.10
2022-11-25T06:28:15.252Z,2.00
2022-11-25T06:31:44.037Z,2.43
2022-11-25T06:35:27.308Z,1.83
2022-11-25T06:38:55.374Z,1.90
2022-11-25T06:42:18.967Z,2.73
2022-11-25T06:45:43.969Z,2.27
2022-11-25T06:49:08.254Z,2.00
2022-11-25T06:52:31.989Z,1.93
2022-11-25T06:56:12.226Z,2.20
2022-11-25T06:59:36.357Z,2.00
2022-11-25T07:03:01.555Z,1.90
2022-11-25T07:06:25.277Z,2.00
2022-11-25T07:09:48.867Z,1.90
2022-11-25T07:13:12.456Z,2.07
2022-11-25T07:16:39.144Z,2.10
2022-11-25T07:20:04.867Z,1.90
2022-11-25T07:23:29.283Z,1.93
2022-11-25T07:26:53.204Z,1.97
2022-11-25T07:34:04.130Z,1.80
2022-11-25T07:37:29.419Z,2.10
2022-11-25T07:40:53.399Z,2.70
2022-11-25T07:44:17.449Z,2.87
2022-11-25T07:47:46.977Z,2.63
2022-11-25T07:51:17.217Z,1.90
2022-11-25T07:54:42.138Z,2.13
2022-11-25T07:58:06.065Z,2.60
2022-11-25T08:01:30.088Z,2.03
2022-11-25T08:04:54.111Z,3.10
2022-11-25T08:08:18.001Z,2.50
2022-11-25T08:11:43.825Z,2.27
2022-11-25T08:15:09.033Z,2.33
2022-11-25T08:18:33.262Z,1.93
2022-11-25T08:21:56.762Z,1.93
2022-11-25T08:25:20.627Z,2.00
2022-11-25T08:28:46.916Z,1.90
2022-11-25T08:32:12.070Z,2.00
2022-11-25T08:35:37.923Z,2.60
2022-11-25T08:39:22.441Z,2.47
2022-11-25T08:42:50.035Z,2.20
2022-11-25T08:46:19.794Z,2.50
2022-11-25T08:49:44.088Z,2.10
2022-11-25T08:53:08.233Z,2.23
2022-11-25T08:56:31.815Z,2.60
2022-11-25T08:59:55.656Z,8.40
2022-11-25T09:03:20.781Z,6.07
2022-11-25T09:06:44.455Z,4.43
2022-11-25T09:10:14.052Z,3.60
2022-11-25T09:13:37.882Z,3.90
2022-11-25T09:17:02.292Z,4.80
2022-11-25T09:20:27.913Z,4.40
2022-11-25T09:23:52.631Z,4.30
2022-11-25T09:27:16.521Z,4.10
2022-11-25T09:30:40.067Z,3.73
2022-11-25T09:34:03.957Z,3.67
2022-11-25T09:37:28.877Z,3.50
2022-11-25T09:40:59.412Z,3.67
2022-11-25T09:45:00.253Z,3.10
2022-11-25T09:48:49.114Z,4.07
2022-11-25T09:52:23.110Z,3.20
2022-11-25T09:55:54.865Z,3.47
2022-11-25T09:59:30.520Z,2.57
2022-11-25T10:03:07.923Z,2.63
2022-11-25T10:06:37.223Z,2.63
2022-11-25T10:10:04.322Z,3.00
2022-11-25T10:13:42.278Z,2.60
2022-11-25T10:17:19.533Z,2.33
2022-11-25T10:20:44.700Z,2.80
2022-11-25T10:24:15.720Z,2.50
2022-11-25T10:27:46.142Z,2.83
2022-11-25T10:31:20.582Z,2.80
2022-11-25T10:34:51.154Z,2.97
2022-11-25T10:38:25.230Z,2.80
2022-11-25T10:41:57.026Z,2.87
2022-11-25T10:45:32.064Z,2.93
2022-11-25T10:49:06.833Z,3.10
2022-11-25T10:52:37.138Z,3.20
2022-11-25T10:56:04.467Z,3.10
2022-11-25T10:59:34.900Z,3.77
2022-11-25T11:03:01.133Z,3.60
2022-11-25T11:06:41.119Z,2.83
2022-11-25T11:10:27.581Z,3.17
2022-11-25T11:13:59.695Z,2.77
2022-11-25T11:17:36.716Z,2.60
2022-11-25T11:21:01.689Z,2.57
2022-11-25T11:24:31.980Z,2.67
2022-11-25T11:27:56.234Z,2.23
2022-11-25T11:31:25.171Z,2.67
2022-11-25T11:35:04.545Z,2.57
2022-11-25T11:38:38.678Z,2.60
2022-11-25T11:42:12.320Z,2.97
2022-11-25T11:45:53.398Z,2.87
2022-11-25T11:49:52.072Z,2.70
2022-11-25T11:53:31.319Z,2.77
2022-11-25T11:57:03.592Z,2.90
2022-11-25T12:00:39.641Z,2.87
2022-11-25T12:04:16.498Z,2.10
2022-11-25T12:07:48.287Z,3.00
2022-11-25T12:11:17.728Z,2.40
2022-11-25T12:14:46.982Z,2.30
2022-11-25T12:18:28.036Z,2.30
2022-11-25T12:22:01.595Z,2.10
2022-11-25T12:25:32.057Z,2.00
2022-11-25T12:29:01.371Z,1.87
2022-11-25T12:32:53.226Z,1.73
2022-11-25T12:36:28.577Z,1.63
2022-11-25T12:40:04.537Z,1.63
2022-11-25T12:43:40.012Z,1.50
2022-11-25T12:47:03.918Z,2.20
2022-11-25T12:50:49.517Z,1.60
2022-11-25T12:54:38.141Z,1.70
2022-11-25T12:58:43.036Z,1.83
2022-11-25T13:02:46.298Z,1.80
2022-11-25T13:06:45.937Z,1.50
2022-11-25T13:10:43.790Z,1.90
2022-11-25T13:14:25.068Z,1.60
2022-11-25T13:17:52.635Z,1.50
2022-11-25T13:21:18.905Z,1.63
2022-11-25T13:24:43.770Z,1.30
2022-11-25T13:28:31.835Z,1.40
2022-11-25T13:32:00.314Z,1.50
2022-11-25T13:35:51.638Z,1.40
2022-11-25T13:39:17.578Z,1.40
2022-11-25T13:42:45.750Z,1.53
2022-11-25T13:46:28.139Z,1.67
2022-11-25T13:49:59.029Z,1.63
2022-11-25T13:53:30.476Z,1.50
2022-11-25T13:57:21.015Z,1.73
2022-11-25T14:01:28.019Z,1.73
2022-11-25T14:05:05.126Z,1.80
2022-11-25T14:08:40.173Z,1.90
2022-11-25T14:12:30.747Z,1.80
2022-11-25T14:16:14.641Z,1.67
2022-11-25T14:20:16.068Z,2.40
2022-11-25T14:24:03.087Z,1.80
2022-11-25T14:27:30.804Z,1.80
2022-11-25T14:31:00.877Z,1.70
2022-11-25T14:34:33.016Z,1.43
2022-11-25T14:38:02.442Z,1.33
2022-11-25T14:41:33.553Z,1.87
2022-11-25T14:44:58.433Z,1.90
2022-11-25T14:48:27.330Z,1.37
2022-11-25T14:51:54.157Z,1.47
2022-11-25T14:55:30.842Z,1.80
2022-11-25T14:58:58.402Z,1.80
2022-11-25T15:02:29.131Z,1.70
2022-11-25T15:05:57.314Z,1.20
2022-11-25T15:09:26.178Z,1.40
2022-11-25T15:12:53.733Z,1.20
2022-11-25T15:16:22.070Z,1.53
2022-11-25T15:19:46.445Z,1.50
2022-11-25T15:23:19.836Z,1.10
2022-11-25T15:26:52.799Z,1.20
2022-11-25T15:30:24.913Z,1.00
2022-11-25T15:33:54.561Z,1.40
2022-11-25T15:37:18.901Z,1.10
2022-11-25T15:40:44.337Z,1.23
2022-11-25T15:44:08.407Z,1.00
2022-11-25T15:47:34.489Z,1.00
2022-11-25T15:51:04.574Z,0.90
2022-11-25T15:54:32.239Z,0.97
2022-11-25T15:58:03.089Z,1.40
2022-11-25T16:01:30.391Z,1.50
2022-11-25T16:05:19.189Z,1.10
2022-11-25T16:08:55.345Z,1.00
2022-11-25T16:12:19.140Z,1.10
2022-11-25T16:15:52.733Z,1.20
2022-11-25T16:19:23.077Z,1.00
2022-11-25T16:22:48.479Z,0.90
2022-11-25T16:26:23.562Z,1.33
2022-11-25T16:29:56.765Z,1.13
2022-11-25T16:33:20.275Z,1.33
2022-11-25T16:36:43.902Z,1.10
2022-11-25T16:40:14.003Z,1.13
2022-11-25T16:43:40.135Z,1.07
2022-11-25T16:47:04.363Z,1.13
2022-11-25T16:50:28.238Z,1.10
2022-11-25T16:53:52.428Z,1.23
2022-11-25T16:57:21.910Z,1.40
2022-11-25T17:00:51.242Z,1.63
2022-11-25T17:04:17.668Z,1.30
2022-11-25T17:07:41.718Z,1.13
2022-11-25T17:11:05.965Z,1.10
2022-11-25T17:14:34.327Z,2.00
2022-11-25T17:17:58.849Z,1.30
2022-11-25T17:21:26.837Z,1.43
2022-11-25T17:24:50.636Z,1.10
2022-11-25T17:28:17.765Z,2.08
2022-11-25T17:31:43.637Z,1.70
2022-11-25T17:35:19.282Z,1.50
2022-11-25T17:38:43.188Z,1.60
2022-11-25T17:42:07.075Z,1.80
2022-11-25T17:45:31.073Z,1.47
2022-11-25T17:48:56.418Z,1.50
2022-11-25T17:52:20.266Z,1.30
2022-11-25T17:55:44.165Z,1.43
2022-11-25T17:59:15.853Z,1.30
2022-11-25T18:02:39.746Z,1.20
2022-11-25T18:06:06.014Z,1.20
2022-11-25T18:09:30.022Z,1.27
2022-11-25T18:12:57.422Z,1.43
2022-11-25T18:16:23.389Z,1.20
2022-11-25T18:19:54.514Z,1.30
2022-11-25T18:23:20.585Z,1.40
2022-11-25T18:26:47.732Z,1.40
2022-11-25T18:30:19.988Z,1.63
2022-11-25T18:33:44.196Z,1.80
2022-11-25T18:37:10.908Z,1.37
2022-11-25T18:40:40.085Z,1.70
2022-11-25T18:44:05.417Z,2.00
2022-11-25T18:47:29.557Z,1.70
2022-11-25T18:50:56.133Z,1.90
2022-11-25T18:54:19.735Z,1.60
2022-11-25T18:57:48.213Z,1.90
2022-11-25T19:01:16.007Z,2.00
2022-11-25T19:04:40.163Z,1.53
2022-11-25T19:08:03.748Z,1.73
2022-11-25T19:11:34.467Z,2.10
2022-11-25T19:14:59.591Z,1.30
2022-11-25T19:18:28.407Z,2.10
2022-11-25T19:21:51.963Z,2.10
2022-11-25T19:25:17.412Z,1.57
2022-11-25T19:28:43.351Z,2.50
2022-11-25T19:32:19.801Z,2.83
2022-11-25T19:35:43.630Z,1.63
2022-11-25T19:39:17.468Z,1.77
2022-11-25T19:42:41.172Z,2.10
2022-11-25T19:46:05.169Z,2.20
2022-11-25T19:49:30.231Z,2.10
2022-11-25T19:52:55.305Z,1.80
2022-11-25T19:56:22.683Z,1.73
2022-11-25T19:59:46.963Z,2.20
2022-11-25T20:03:20.403Z,2.10
2022-11-25T20:06:45.442Z,2.40
2022-11-25T20:10:19.473Z,1.90
2022-11-25T20:13:44.108Z,2.07
2022-11-25T20:17:11.978Z,2.17
2022-11-25T20:20:41.590Z,2.50
2022-11-25T20:24:14.716Z,2.47
2022-11-25T20:27:38.547Z,2.00
2022-11-25T20:31:02.079Z,2.10
2022-11-25T20:34:25.710Z,2.20
2022-11-25T20:37:57.436Z,2.77
2022-11-25T20:41:27.912Z,2.47
2022-11-25T20:44:57.073Z,2.50
2022-11-25T20:48:21.559Z,2.80
2022-11-25T20:51:45.292Z,1.80
2022-11-25T20:55:20.904Z,2.43
2022-11-25T20:58:47.227Z,2.00
2022-11-25T21:02:11.192Z,1.83
2022-11-25T21:05:35.111Z,1.67
2022-11-25T21:09:02.310Z,1.90
2022-11-25T21:12:26.222Z,1.77
2022-11-25T21:15:53.121Z,1.60
2022-11-25T21:19:17.572Z,2.20
2022-11-25T21:22:44.748Z,1.90
2022-11-25T21:26:15.221Z,1.70
2022-11-25T21:29:40.667Z,1.60
2022-11-25T21:33:10.694Z,1.67
2022-11-25T21:36:34.597Z,1.70
2022-11-25T21:39:59.656Z,1.40
2022-11-25T21:43:30.399Z,1.37
2022-11-25T21:46:54.738Z,1.53
2022-11-25T21:50:21.451Z,1.37
2022-11-25T21:53:44.892Z,1.50
2022-11-25T21:57:16.333Z,1.60
2022-11-25T22:00:40.259Z,1.90
2022-11-25T22:04:03.848Z,1.60
2022-11-25T22:07:30.976Z,1.20
2022-11-25T22:10:56.818Z,1.50
2022-11-25T22:14:34.036Z,1.07
2022-11-25T22:17:59.725Z,1.30
2022-11-25T22:21:23.481Z,1.33
2022-11-25T22:24:48.381Z,1.60
2022-11-25T22:28:15.261Z,1.57
2022-11-25T22:31:39.034Z,1.50
2022-11-25T22:35:02.604Z,1.30
2022-11-25T22:38:27.798Z,1.30
2022-11-25T22:41:57.079Z,1.10
2022-11-25T22:45:33.795Z,1.50
2022-11-25T22:48:57.473Z,1.27
2022-11-25T22:52:25.110Z,1.20
2022-11-25T22:55:50.300Z,1.60
2022-11-25T22:59:15.367Z,1.40
2022-11-25T23:02:39.432Z,1.37
2022-11-25T23:06:03.592Z,1.30
2022-11-25T23:09:27.096Z,1.30
2022-11-25T23:12:50.911Z,1.37
2022-11-25T23:16:17.340Z,1.50
2022-11-25T23:19:41.234Z,1.97
2022-11-25T23:23:15.667Z,1.60
2022-11-25T23:26:39.623Z,1.60
2022-11-25T23:30:03.469Z,2.30
2022-11-25T23:33:34.563Z,1.70
2022-11-25T23:37:00.071Z,1.50
2022-11-25T23:40:26.913Z,1.53
2022-11-25T23:43:51.265Z,1.50
2022-11-25T23:47:21.459Z,1.80
2022-11-25T23:50:48.145Z,1.40
2022-11-25T23:54:15.862Z,1.60
2022-11-25T23:57:39.725Z,1.47
